Time;durP1;ratioP1;P1;durP2;ratioP2;P2;SDS_P1;SDS_P2;PMS_P1;PMS_P2;Temp;Humidity;BMP_temperature;BMP_pressure;BME280_temperature;BME280_humidity;BME280_pressure;Samples;Min_cycle;Max_cycle;Signal;HPM_P1;HPM_P2
2022/05/27 00:00:06;;;;;;;3.40;1.30;;;;;;;21.70;48.37;100234.75;4352712;32;33694;-96
2022/05/27 00:02:33;;;;;;;2.67;1.20;;;;;;;21.72;48.29;100237.28;4350792;32;34033;-96
2022/05/27 00:05:02;;;;;;;2.25;1.48;;;;;;;21.78;47.89;100227.81;4350445;32;32917;-96
2022/05/27 00:07:30;;;;;;;2.78;1.40;;;;;;;21.76;47.46;100222.50;4350830;32;32149;-96
2022/05/27 00:09:57;;;;;;;2.80;1.23;;;;;;;21.78;47.24;100228.66;4338770;32;32932;-95
2022/05/27 00:12:25;;;;;;;3.12;1.45;;;;;;;21.88;46.76;100223.13;4350576;32;34013;-95
2022/05/27 00:14:53;;;;;;;4.57;1.65;;;;;;;21.80;46.82;100215.25;4350379;32;35294;-95
2022/05/27 00:17:21;;;;;;;4.72;1.50;;;;;;;21.81;47.23;100216.09;4338122;32;32661;-96
2022/05/27 00:19:51;;;;;;;2.35;1.17;;;;;;;21.81;47.54;100218.88;4350311;32;32635;-96
2022/05/27 00:22:19;;;;;;;3.20;1.48;;;;;;;21.91;47.00;100214.22;4350683;32;32181;-96
2022/05/27 00:24:47;;;;;;;2.65;1.30;;;;;;;21.84;47.11;100208.00;4350533;32;32360;-96
2022/05/27 00:27:15;;;;;;;3.58;1.30;;;;;;;21.85;47.20;100206.06;4350370;32;34312;-96
2022/05/27 00:29:43;;;;;;;2.08;1.20;;;;;;;21.89;47.01;100194.06;4350531;32;33780;-95
2022/05/27 00:32:29;;;;;;;3.35;1.65;;;;;;;21.84;47.46;100198.78;4352019;32;31954;-95
2022/05/27 00:34:57;;;;;;;3.70;1.30;;;;;;;21.79;48.24;100194.00;4350178;32;34955;-96
2022/05/27 00:37:25;;;;;;;3.45;1.50;;;;;;;21.68;48.73;100197.84;4338461;32;32715;-96
2022/05/27 00:39:55;;;;;;;3.30;1.40;;;;;;;21.75;48.58;100200.41;4350212;32;31805;-95
2022/05/27 00:42:23;;;;;;;5.90;1.60;;;;;;;21.72;48.95;100198.16;4350427;32;35330;-95
2022/05/27 00:44:52;;;;;;;4.93;1.60;;;;;;;21.83;48.75;100200.75;4350290;32;32805;-96
2022/05/27 00:47:22;;;;;;;3.00;1.45;;;;;;;21.76;49.18;100202.94;4338513;32;32379;-96
2022/05/27 00:49:54;;;;;;;3.20;1.62;;;;;;;21.76;49.27;100193.72;4363367;32;33643;-96
2022/05/27 00:52:24;;;;;;;3.58;1.50;;;;;;;21.78;49.32;100192.31;4350522;32;31886;-96
2022/05/27 00:54:52;;;;;;;3.33;1.37;;;;;;;21.82;49.27;100204.66;4350421;32;35374;-96
2022/05/27 00:57:24;;;;;;;4.05;1.50;;;;;;;21.84;49.28;100202.44;4351116;32;33308;-96
2022/05/27 00:59:56;;;;;;;3.33;1.50;;;;;;;21.83;49.36;100200.75;4350801;32;33509;-96
2022/05/27 01:02:24;;;;;;;5.22;1.62;;;;;;;21.81;49.38;100202.97;4351355;32;32211;-96
2022/05/27 01:04:52;;;;;;;3.58;1.40;;;;;;;21.73;49.57;100200.69;4351322;32;35396;-96
2022/05/27 01:07:21;;;;;;;3.87;1.37;;;;;;;21.56;49.91;100203.63;4351087;32;33221;-96
2022/05/27 01:09:49;;;;;;;2.87;1.50;;;;;;;21.64;49.62;100191.97;4350570;32;31591;-96
2022/05/27 01:12:40;;;;;;;4.60;1.70;;;;;;;21.67;49.60;100198.97;4350358;32;34530;-95
2022/05/27 01:15:31;;;;;;;3.78;1.85;;;;;;;21.64;49.68;100203.13;4357781;32;33733;-96
2022/05/27 01:18:08;;;;;;;3.90;1.60;;;;;;;21.50;50.21;100195.50;4363026;32;33662;-96
2022/05/27 01:20:42;;;;;;;3.97;1.60;;;;;;;21.54;50.12;100199.44;4350421;32;31397;-96
2022/05/27 01:23:39;;;;;;;5.55;1.50;;;;;;;21.62;49.83;100193.34;4362757;32;34012;-96
2022/05/27 01:26:26;;;;;;;2.67;1.20;;;;;;;21.64;49.68;100193.91;4337691;32;33994;-96
2022/05/27 01:29:15;;;;;;;3.12;1.40;;;;;;;21.52;50.06;100190.47;4350825;32;32932;-96
2022/05/27 01:32:06;;;;;;;2.65;1.40;;;;;;;21.40;50.41;100192.66;4350052;32;31591;-95
2022/05/27 01:34:47;;;;;;;3.08;1.30;;;;;;;21.55;49.93;100192.72;4350808;32;32029;-96
2022/05/27 01:37:26;;;;;;;4.05;1.50;;;;;;;21.47;50.26;100190.44;4364147;32;34020;-96
2022/05/27 01:40:25;;;;;;;4.18;1.60;;;;;;;21.48;50.28;100192.97;4351706;32;33164;-96
2022/05/27 01:43:00;;;;;;;3.53;1.30;;;;;;;21.42;50.51;100182.91;4351576;32;31429;-96
2022/05/27 01:45:40;;;;;;;6.18;1.77;;;;;;;21.44;50.46;100183.47;4351805;32;33119;-96
2022/05/27 01:48:20;;;;;;;3.53;1.50;;;;;;;21.50;50.13;100182.38;4363832;32;33497;-95
2022/05/27 01:50:55;;;;;;;3.33;1.50;;;;;;;21.43;50.37;100178.16;4364050;32;32132;-96
2022/05/27 01:53:45;;;;;;;3.35;1.27;;;;;;;21.41;50.43;100175.63;4364877;32;36020;-96
2022/05/27 01:56:19;;;;;;;3.03;1.30;;;;;;;21.32;50.80;100185.63;4363981;32;35189;-96
2022/05/27 01:58:58;;;;;;;3.75;1.17;;;;;;;21.31;50.77;100169.97;4363719;32;35101;-95
2022/05/27 02:01:38;;;;;;;3.53;1.50;;;;;;;21.32;50.71;100180.88;4351541;32;34725;-96
2022/05/27 02:04:30;;;;;;;3.30;1.30;;;;;;;21.37;50.60;100169.75;4351479;32;32660;-96
2022/05/27 02:07:48;;;;;;;3.45;1.45;;;;;;;21.39;50.68;100179.78;4351190;32;32047;-96
2022/05/27 02:10:21;;;;;;;;;;;;;;;21.34;50.76;100172.22;4362076;32;34904;-96
2022/05/27 02:12:58;;;;;;;4.72;1.60;;;;;;;21.24;50.88;100175.78;4339635;32;33768;-96
2022/05/27 02:15:36;;;;;;;3.30;1.60;;;;;;;21.35;50.54;100176.69;4351368;32;32928;-96
2022/05/27 02:18:40;;;;;;;4.22;1.50;;;;;;;21.37;50.45;100169.75;4363756;32;36038;-96
2022/05/27 02:21:31;;;;;;;5.28;1.98;;;;;;;21.35;50.58;100171.12;4351660;32;33418;-96
2022/05/27 02:24:22;;;;;;;3.45;1.60;;;;;;;21.24;50.78;100177.72;4351566;32;33207;-96
2022/05/27 02:27:04;;;;;;;3.28;1.30;;;;;;;21.24;50.68;100174.94;4351720;32;31739;-96
2022/05/27 02:29:32;;;;;;;4.03;1.55;;;;;;;21.25;50.58;100180.25;4351867;32;33186;-96
2022/05/27 02:32:08;;;;;;;3.05;1.55;;;;;;;21.18;50.83;100185.19;4351595;32;36558;-96
2022/05/27 02:37:28;;;;;;;3.08;1.70;;;;;;;21.14;50.85;100181.25;4353719;32;32381;-96
2022/05/27 02:39:57;;;;;;;3.35;1.70;;;;;;;20.94;51.78;100181.91;4351875;32;32941;-96
2022/05/27 02:42:32;;;;;;;4.95;1.70;;;;;;;21.05;51.32;100175.31;4351825;32;35103;-94
2022/05/27 02:45:19;;;;;;;3.95;1.60;;;;;;;21.13;51.06;100178.72;4363196;32;34165;-96
2022/05/27 02:47:59;;;;;;;3.37;1.23;;;;;;;21.08;51.42;100179.50;4351882;32;33337;-96
2022/05/27 02:50:37;;;;;;;3.83;1.80;;;;;;;20.87;51.98;100183.22;4351925;32;35512;-96
2022/05/27 02:53:42;;;;;;;4.28;1.70;;;;;;;20.98;51.62;100177.47;4351505;32;34550;-96
2022/05/27 02:56:16;;;;;;;2.83;1.50;;;;;;;20.88;51.82;100182.13;4363848;32;33657;-96
2022/05/27 02:58:44;;;;;;;4.75;1.50;;;;;;;20.83;51.91;100184.84;4351705;32;31040;-96
2022/05/27 03:01:12;;;;;;;3.45;1.60;;;;;;;20.67;52.50;100179.16;4351728;32;33082;-95
2022/05/27 03:03:42;;;;;;;3.97;1.67;;;;;;;20.68;52.31;100174.41;4351543;32;33048;-96
2022/05/27 03:06:10;;;;;;;3.30;1.60;;;;;;;20.65;52.36;100180.53;4351671;32;35370;-96
2022/05/27 03:08:47;;;;;;;5.78;1.70;;;;;;;20.52;52.62;100178.16;4363511;32;34460;-96
2022/05/27 03:11:27;;;;;;;3.60;1.80;;;;;;;20.55;52.49;100189.63;4351104;32;32688;-96
2022/05/27 03:14:44;;;;;;;4.78;1.75;;;;;;;20.61;52.06;100190.53;4363562;32;34623;-95
2022/05/27 03:17:30;;;;;;;4.07;1.60;;;;;;;20.40;52.80;100189.44;4331154;32;33621;-96
2022/05/27 03:20:07;;;;;;;;;;;;;;;20.30;53.11;100200.44;4363889;32;33101;-95
2022/05/27 03:22:53;;;;;;;4.57;1.73;;;;;;;20.29;53.33;100201.53;4351558;32;32401;-96
2022/05/27 03:25:31;;;;;;;;;;;;;;;20.46;52.76;100199.56;4351580;32;32584;-95
2022/05/27 03:28:18;;;;;;;3.60;1.70;;;;;;;20.48;52.91;100200.13;4351330;32;36092;-96
2022/05/27 03:30:55;;;;;;;5.28;1.80;;;;;;;20.36;53.43;100202.19;4351392;32;32710;-95
2022/05/27 03:33:36;;;;;;;4.60;1.90;;;;;;;20.44;53.36;100195.34;4351118;32;33185;-96
2022/05/27 03:36:27;;;;;;;4.10;2.05;;;;;;;20.49;53.36;100195.41;4351029;32;33997;-96
2022/05/27 03:39:08;;;;;;;3.78;1.70;;;;;;;20.60;53.20;100192.47;4350662;32;32686;-83
2022/05/27 03:41:43;;;;;;;5.05;1.98;;;;;;;20.58;53.75;100193.84;4354036;32;33221;-96
2022/05/27 03:44:19;;;;;;;4.87;2.40;;;;;;;20.67;53.59;100195.88;4374625;27;33680;-96
2022/05/27 03:46:49;;;;;;;7.30;2.50;;;;;;;20.60;53.87;100203.63;4366625;32;34744;-95
2022/05/27 03:49:17;;;;;;;5.93;2.08;;;;;;;20.73;53.48;100196.78;4393395;27;35379;-96
2022/05/27 03:51:54;;;;;;;4.93;2.12;;;;;;;20.68;53.68;100200.38;4345147;32;31149;-92
2022/05/27 03:54:22;;;;;;;4.97;2.17;;;;;;;20.75;53.36;100202.09;4381093;32;32874;-89
2022/05/27 03:56:50;;;;;;;4.68;1.87;;;;;;;20.78;52.71;100207.16;4362743;32;35159;-95
2022/05/27 03:59:18;;;;;;;4.05;1.83;;;;;;;20.71;52.64;100210.16;4362621;32;34081;-94
2022/05/27 04:01:49;;;;;;;3.85;1.85;;;;;;;20.68;52.68;100200.38;4350014;32;32746;-94
2022/05/27 04:04:22;;;;;;;5.25;1.98;;;;;;;20.72;52.63;100200.69;4357477;32;34885;-95
2022/05/27 04:06:53;;;;;;;4.18;1.90;;;;;;;20.67;53.22;100200.63;4351296;33;34735;-96
2022/05/27 04:09:25;;;;;;;3.97;1.90;;;;;;;20.80;53.01;100199.38;4348619;32;33355;-91
2022/05/27 04:11:53;;;;;;;6.72;1.85;;;;;;;20.80;53.39;100199.38;4419168;27;31910;-95
2022/05/27 04:14:24;;;;;;;5.07;2.25;;;;;;;20.75;52.90;100190.94;4380892;32;32923;-91
2022/05/27 04:17:27;;;;;;;5.32;2.05;;;;;;;20.76;52.37;100198.22;4383053;32;34549;-96
2022/05/27 04:20:08;;;;;;;3.95;2.10;;;;;;;20.70;52.83;100202.91;4475775;27;32857;-96
2022/05/27 04:22:36;;;;;;;3.45;1.70;;;;;;;20.87;52.76;100192.44;4347609;32;33387;-87
2022/05/27 04:25:13;;;;;;;3.20;1.60;;;;;;;20.94;52.68;100200.59;4341656;32;33276;-82
2022/05/27 04:27:44;;;;;;;3.42;1.60;;;;;;;21.04;52.27;100193.16;4325198;33;32980;-86
2022/05/27 04:30:12;;;;;;;2.97;1.42;;;;;;;21.03;52.41;100199.00;4338561;33;32551;-86
2022/05/27 04:32:42;;;;;;;4.10;1.80;;;;;;;21.23;51.79;100202.00;4334925;33;33094;-87
2022/05/27 04:35:10;;;;;;;5.97;2.95;;;;;;;21.21;51.48;100204.22;4322816;33;32826;-87
2022/05/27 04:37:39;;;;;;;6.97;2.40;;;;;;;21.20;51.43;100199.72;4334745;33;33387;-86
2022/05/27 04:40:07;;;;;;;4.15;2.10;;;;;;;21.18;51.84;100201.09;4347666;32;34088;-86
2022/05/27 04:42:35;;;;;;;5.70;2.28;;;;;;;21.25;52.18;100204.53;4346749;32;31407;-87
2022/05/27 04:45:09;;;;;;;5.57;2.33;;;;;;;21.26;52.33;100201.47;4341222;32;31904;-88
2022/05/27 04:47:38;;;;;;;7.90;4.15;;;;;;;21.25;52.44;100190.56;4347427;32;32061;-87
2022/05/27 04:50:10;;;;;;;6.45;2.22;;;;;;;21.35;52.04;100190.66;4350790;32;32340;-87
2022/05/27 04:52:38;;;;;;;11.65;2.70;;;;;;;21.44;51.39;100185.41;4336767;32;33473;-79
2022/05/27 04:55:10;;;;;;;6.40;2.28;;;;;;;21.38;51.57;100184.53;4354345;32;33669;-76
2022/05/27 04:57:43;;;;;;;7.93;2.22;;;;;;;21.46;51.73;100188.75;4357692;32;34468;-79
2022/05/27 05:00:16;;;;;;;6.80;2.10;;;;;;;21.49;51.66;100183.47;4346705;33;34674;-79
2022/05/27 05:02:44;;;;;;;6.85;2.67;;;;;;;21.57;51.18;100190.50;4351664;32;33951;-85
2022/05/27 05:05:15;;;;;;;5.12;2.40;;;;;;;21.60;51.25;100189.97;4326094;33;33650;-90
2022/05/27 05:07:44;;;;;;;7.55;2.15;;;;;;;21.71;50.88;100197.31;4334712;33;33692;-87
2022/05/27 05:10:15;;;;;;;5.95;2.28;;;;;;;21.75;50.71;100201.25;4348117;33;34480;-79
2022/05/27 05:12:43;;;;;;;4.12;2.10;;;;;;;21.85;50.46;100192.94;4336582;33;33306;-79
2022/05/27 05:15:12;;;;;;;4.75;2.05;;;;;;;22.08;49.38;100190.84;4336430;33;33986;-79
2022/05/27 05:17:40;;;;;;;6.65;1.50;;;;;;;21.99;48.71;100194.13;4335733;33;33440;-79
2022/05/27 05:20:09;;;;;;;5.78;2.90;;;;;;;21.92;46.93;100187.94;4336063;33;34877;-78
2022/05/27 05:22:43;;;;;;;7.30;2.45;;;;;;;21.93;46.98;100189.63;4348024;33;34076;-78
2022/05/27 05:25:11;;;;;;;3.65;1.40;;;;;;;22.12;46.83;100180.78;4336350;33;34029;-80
2022/05/27 05:27:42;;;;;;;13.70;10.18;;;;;;;22.23;46.34;100188.09;4348479;33;33777;-81
2022/05/27 05:30:15;;;;;;;7.47;4.57;;;;;;;22.24;45.48;100187.81;4348232;33;32597;-79
2022/05/27 05:32:43;;;;;;;12.25;7.97;;;;;;;22.30;44.62;100189.53;4336446;33;33977;-79
2022/05/27 05:35:12;;;;;;;9.00;4.03;;;;;;;22.34;44.62;100189.81;4346388;33;33796;-78
2022/05/27 05:37:40;;;;;;;4.07;1.95;;;;;;;22.30;44.57;100186.72;4346172;33;35253;-78
2022/05/27 05:40:10;;;;;;;5.60;1.50;;;;;;;22.54;43.15;100187.09;4334668;33;33898;-78
2022/05/27 05:42:42;;;;;;;6.25;3.45;;;;;;;22.26;43.47;100180.00;4348906;32;34100;-78
2022/05/27 05:45:14;;;;;;;4.60;1.27;;;;;;;22.45;44.60;100188.72;4335644;33;32040;-78
2022/05/27 05:47:43;;;;;;;3.78;1.50;;;;;;;22.36;44.49;100193.19;4347952;33;34281;-78
2022/05/27 05:50:12;;;;;;;5.20;2.12;;;;;;;22.41;43.96;100192.34;4348239;33;33621;-78
2022/05/27 05:52:40;;;;;;;6.82;3.12;;;;;;;22.37;43.00;100189.25;4348215;33;34084;-78
2022/05/27 05:55:09;;;;;;;5.60;2.60;;;;;;;22.30;42.58;100191.47;4336051;33;33027;-79
2022/05/27 05:57:38;;;;;;;3.25;1.15;;;;;;;22.35;42.74;100192.34;4336418;33;34297;-79
2022/05/27 06:00:11;;;;;;;3.00;0.98;;;;;;;22.07;43.76;100184.41;4336207;33;33640;-83
2022/05/27 06:02:44;;;;;;;2.47;1.20;;;;;;;22.12;41.82;100191.94;4334315;33;33141;-89
2022/05/27 06:05:18;;;;;;;2.65;0.77;;;;;;;22.38;40.56;100185.34;4334839;33;33791;-88
2022/05/27 06:07:50;;;;;;;4.65;1.10;;;;;;;22.43;39.18;100190.97;4334938;33;32961;-88
2022/05/27 06:10:21;;;;;;;4.10;1.37;;;;;;;22.77;39.82;100193.25;4335314;33;33887;-88
2022/05/27 06:12:54;;;;;;;2.83;1.20;;;;;;;22.84;39.51;100191.91;4334939;33;31369;-88
2022/05/27 06:15:30;;;;;;;2.87;1.30;;;;;;;22.86;40.47;100189.69;4323012;33;32381;-88
2022/05/27 06:18:04;;;;;;;3.10;0.98;;;;;;;23.10;40.38;100189.16;4334742;33;34689;-90
2022/05/27 06:20:35;;;;;;;4.32;1.10;;;;;;;22.87;38.04;100191.34;4335485;33;32979;-88
2022/05/27 06:23:08;;;;;;;2.33;1.00;;;;;;;23.04;37.93;100188.28;4323747;33;31661;-88
2022/05/27 06:25:39;;;;;;;2.83;1.12;;;;;;;23.19;38.73;100190.28;4335787;33;34360;-90
2022/05/27 06:36:46;;;;;;;2.10;0.88;;;;;;;23.91;36.75;100184.28;4347941;33;32190;-89
2022/05/27 06:39:17;;;;;;;1.87;0.70;;;;;;;23.74;36.88;100183.78;4323588;33;32536;-90
2022/05/27 06:41:44;;;;;;;2.00;0.80;;;;;;;23.93;34.52;100190.47;4335737;33;34377;-90
2022/05/27 06:44:13;;;;;;;3.08;1.02;;;;;;;23.76;35.26;100187.13;4335875;33;32743;-89
2022/05/27 06:46:44;;;;;;;2.40;0.90;;;;;;;23.52;33.81;100188.81;4323554;33;32990;-90
2022/05/27 06:49:12;;;;;;;6.62;3.47;;;;;;;23.38;35.02;100176.53;4323595;33;33468;-90
2022/05/27 06:51:41;;;;;;;2.50;0.80;;;;;;;23.71;34.92;100170.31;4323608;33;33346;-88
2022/05/27 06:54:14;;;;;;;4.70;1.00;;;;;;;23.75;35.12;100171.44;4323284;33;31239;-88
2022/05/27 06:56:49;;;;;;;3.05;0.90;;;;;;;24.04;34.75;100166.03;4323680;33;32284;-89
2022/05/27 06:59:16;;;;;;;3.78;0.90;;;;;;;24.19;34.48;100160.34;4323770;33;33851;-88
2022/05/27 07:02:12;;;;;;;1.80;0.90;;;;;;;24.32;34.12;100170.13;4335722;33;33987;-89
2022/05/27 07:04:40;;;;;;;3.47;1.00;;;;;;;24.44;34.12;100172.59;4335323;33;31702;-89
2022/05/27 07:07:42;;;;;;;2.37;1.10;;;;;;;24.14;34.46;100163.16;4323757;33;33104;-90
2022/05/27 07:10:18;;;;;;;2.62;1.05;;;;;;;23.85;35.86;100159.37;4325739;33;33071;-89
2022/05/27 07:12:51;;;;;;;4.82;0.88;;;;;;;24.22;35.25;100159.75;4347775;33;33902;-90
2022/05/27 07:15:27;;;;;;;2.10;0.95;;;;;;;24.59;34.70;100164.09;4335469;33;33382;-88
2022/05/27 07:18:02;;;;;;;3.83;0.98;;;;;;;24.57;35.11;100158.75;4322570;33;33121;-84
2022/05/27 07:20:30;;;;;;;7.28;1.05;;;;;;;24.27;34.76;100156.13;4323262;33;33931;-84
2022/05/27 07:22:58;;;;;;;2.80;0.82;;;;;;;24.52;34.69;100164.41;4335477;33;34985;-82
2022/05/27 07:25:34;;;;;;;3.10;0.80;;;;;;;24.67;34.29;100160.66;4323918;33;32687;-88
2022/05/27 07:28:08;;;;;;;3.05;0.77;;;;;;;24.64;34.69;100147.22;4335973;33;34164;-88
2022/05/27 07:30:38;;;;;;;1.98;0.80;;;;;;;24.73;34.62;100148.25;4347634;33;34010;-89
2022/05/27 07:33:09;;;;;;;2.95;1.00;;;;;;;25.07;33.46;100153.94;4322857;33;32127;-89
2022/05/27 07:35:47;;;;;;;3.40;1.08;;;;;;;24.88;33.94;100152.91;4335381;33;33280;-87
2022/05/27 07:38:17;;;;;;;3.97;1.80;;;;;;;24.77;34.23;100152.16;4335336;33;33742;-90
2022/05/27 07:40:45;;;;;;;3.40;1.00;;;;;;;24.97;34.27;100148.38;4323373;33;33983;-89
2022/05/27 07:43:14;;;;;;;3.83;1.10;;;;;;;24.57;34.59;100136.31;4335437;33;33862;-88
2022/05/27 07:45:47;;;;;;;3.58;1.48;;;;;;;24.72;35.18;100146.56;4323472;33;31632;-88
2022/05/27 07:48:18;;;;;;;3.60;1.10;;;;;;;24.73;35.45;100139.00;4323342;33;33804;-88
2022/05/27 07:50:46;;;;;;;3.05;1.35;;;;;;;24.92;35.34;100142.78;4335603;33;35255;-88
2022/05/27 07:53:16;;;;;;;4.62;1.30;;;;;;;25.11;35.06;100152.22;4323203;33;32519;-89
2022/05/27 07:55:43;;;;;;;6.95;3.87;;;;;;;24.86;34.96;100135.53;4335559;33;33320;-87
2022/05/27 07:58:12;;;;;;;3.42;1.23;;;;;;;25.09;35.13;100129.19;4323314;33;33248;-88
2022/05/27 08:00:39;;;;;;;1.73;0.93;;;;;;;25.09;35.01;100137.62;4335097;33;34066;-87
2022/05/27 08:03:11;;;;;;;2.10;0.90;;;;;;;25.25;35.33;100125.13;4324020;33;32406;-89
2022/05/27 08:05:39;;;;;;;5.30;1.17;;;;;;;25.06;34.89;100129.78;4323220;33;32682;-89
2022/05/27 08:08:07;;;;;;;3.10;1.12;;;;;;;25.17;35.24;100127.72;4347645;33;34578;-89
2022/05/27 08:10:37;;;;;;;2.90;0.90;;;;;;;25.42;34.81;100124.63;4335256;33;35320;-89
2022/05/27 08:13:07;;;;;;;2.78;0.85;;;;;;;25.64;34.29;100129.78;4335434;33;34556;-90
2022/05/27 08:15:37;;;;;;;3.60;1.42;;;;;;;25.72;34.38;100123.50;4323615;33;31958;-88
2022/05/27 08:18:08;;;;;;;4.10;1.08;;;;;;;25.79;34.36;100121.19;4323062;33;32203;-89
2022/05/27 08:20:39;;;;;;;5.70;1.40;;;;;;;25.99;33.65;100117.28;4322867;33;33721;-88
2022/05/27 08:23:07;;;;;;;39.13;9.88;;;;;;;26.24;34.07;100121.72;4322998;33;33009;-87
2022/05/27 08:25:36;;;;;;;6.07;1.33;;;;;;;26.24;33.89;100122.56;4323023;33;31849;-88
2022/05/27 08:28:05;;;;;;;15.07;3.85;;;;;;;26.04;34.54;100114.38;4335080;33;33369;-89
2022/05/27 08:30:40;;;;;;;12.73;2.83;;;;;;;26.37;33.81;100118.19;4322992;33;34057;-89
2022/05/27 08:33:08;;;;;;;5.22;1.45;;;;;;;26.24;34.03;100121.72;4335250;33;34805;-93
2022/05/27 08:38:30;;;;;;;5.95;1.70;;;;;;;26.45;33.12;100117.50;4347315;33;33625;-91
2022/05/27 08:41:00;;;;;;;3.20;1.20;;;;;;;26.30;34.70;100109.25;4334932;33;33792;-91
2022/05/27 08:43:43;;;;;;;3.10;1.20;;;;;;;26.51;33.62;100110.66;4345863;33;33857;-88
2022/05/27 08:46:17;;;;;;;4.05;0.90;;;;;;;26.49;32.73;100110.12;4359170;32;33388;-91
2022/05/27 08:48:46;;;;;;;3.80;1.02;;;;;;;26.20;33.22;100098.97;4347295;33;34026;-92
2022/05/27 08:51:52;;;;;;;2.67;1.08;;;;;;;26.48;32.89;100100.00;4326716;33;33891;-90
2022/05/27 08:54:24;;;;;;;3.45;1.05;;;;;;;26.38;32.85;100085.25;4359167;32;33904;-91
2022/05/27 08:59:59;;;;;;;5.72;1.02;;;;;;;26.74;32.41;100077.91;4346732;33;32296;-94
2022/05/27 09:02:36;;;;;;;5.35;1.50;;;;;;;26.95;32.13;100086.84;4346718;33;33073;-91
2022/05/27 09:05:25;;;;;;;5.10;1.20;;;;;;;26.66;32.57;100087.03;4345349;33;32549;-89
2022/05/27 09:08:12;;;;;;;3.67;1.30;;;;;;;27.13;31.62;100080.38;4322612;33;33636;-91
2022/05/27 09:11:09;;;;;;;2.83;0.90;;;;;;;27.13;31.59;100071.06;4346659;32;33397;-93
2022/05/27 09:13:43;;;;;;;2.65;0.95;;;;;;;27.34;32.02;100072.34;4347870;33;34587;-92
2022/05/27 09:16:36;;;;;;;3.17;0.95;;;;;;;27.50;31.10;100064.44;4346514;33;33552;-91
2022/05/27 09:19:35;;;;;;;1.98;1.00;;;;;;;27.64;30.52;100068.13;4356344;32;32068;-92
2022/05/27 09:22:39;;;;;;;6.03;1.20;;;;;;;27.21;31.05;100065.56;4346922;33;34804;-94
2022/05/27 09:25:41;;;;;;;3.22;1.05;;;;;;;27.03;31.66;100060.81;4335247;33;34698;-93
2022/05/27 09:28:37;;;;;;;4.10;1.17;;;;;;;27.59;31.28;100053.28;4334195;33;33780;-92
2022/05/27 09:31:11;;;;;;;2.05;0.90;;;;;;;27.52;30.91;100053.69;4346383;33;33389;-93
2022/05/27 09:33:45;;;;;;;3.35;0.90;;;;;;;27.63;31.52;100057.16;4322334;33;32201;-93
2022/05/27 09:36:36;;;;;;;3.87;1.10;;;;;;;27.57;30.39;100053.56;4322496;33;34747;-92
2022/05/27 09:39:19;;;;;;;2.28;1.10;;;;;;;27.64;30.19;100059.66;4324360;33;33033;-93
2022/05/27 09:42:21;;;;;;;3.65;0.95;;;;;;;28.00;30.10;100044.78;4335004;33;33349;-93
2022/05/27 09:44:57;;;;;;;1.80;0.93;;;;;;;27.58;30.56;100052.44;4334122;33;33150;-93
2022/05/27 09:47:36;;;;;;;2.25;0.90;;;;;;;27.64;30.44;100036.28;4346014;33;33977;-94
2022/05/27 09:50:13;;;;;;;5.97;1.02;;;;;;;27.49;29.99;100041.03;4322071;33;34087;-93
2022/05/27 09:52:42;;;;;;;4.28;1.10;;;;;;;28.00;29.62;100030.69;4346102;33;34320;-95
2022/05/27 09:55:37;;;;;;;3.20;1.17;;;;;;;27.77;30.18;100027.81;4322435;33;34021;-94
2022/05/27 09:58:06;;;;;;;3.47;1.17;;;;;;;27.97;29.57;100017.19;4348356;33;34685;-94
2022/05/27 10:00:34;;;;;;;4.32;1.17;;;;;;;28.46;29.69;100014.38;4336113;33;34027;-93
2022/05/27 10:03:32;;;;;;;1.87;1.27;;;;;;;28.59;29.57;100011.81;4336758;33;31627;-93
2022/05/27 10:06:04;;;;;;;3.33;0.98;;;;;;;28.81;29.04;100011.78;4336102;33;32362;-96
2022/05/27 10:08:38;;;;;;;2.35;0.98;;;;;;;28.47;28.52;100004.75;4336366;33;32749;-95
2022/05/27 10:11:13;;;;;;;2.53;0.85;;;;;;;28.56;29.13;100006.81;4347285;33;34003;-93
2022/05/27 10:13:45;;;;;;;1.77;1.00;;;;;;;28.25;29.42;100010.37;4335946;33;31536;-86
2022/05/27 10:16:24;;;;;;;4.35;1.15;;;;;;;28.80;29.26;100010.94;4335926;33;33392;-87
2022/05/27 10:19:13;;;;;;;3.22;0.90;;;;;;;28.97;29.00;99998.12;4335862;33;35098;-85
2022/05/27 10:21:53;;;;;;;1.90;0.90;;;;;;;29.48;28.59;99986.22;4336683;33;33928;-87
2022/05/27 10:24:30;;;;;;;1.87;0.82;;;;;;;29.13;27.68;99988.06;4349022;33;34040;-84
2022/05/27 10:27:10;;;;;;;2.22;1.00;;;;;;;29.31;28.07;99980.47;4335602;33;33198;-85
2022/05/27 10:29:47;;;;;;;3.08;0.90;;;;;;;29.78;28.74;99968.34;4349070;33;34314;-85
2022/05/27 10:32:38;;;;;;;1.90;0.93;;;;;;;29.96;27.66;99974.84;4335755;33;32479;-84
2022/05/27 10:35:09;;;;;;;2.17;1.00;;;;;;;29.62;27.59;99961.47;4347858;33;33181;-85
2022/05/27 10:37:59;;;;;;;1.85;0.80;;;;;;;30.00;26.83;99955.22;4323463;33;32283;-85
2022/05/27 10:41:04;;;;;;;3.25;0.98;;;;;;;30.42;27.02;99947.91;4335731;33;34247;-84
2022/05/27 10:44:03;;;;;;;3.92;1.20;;;;;;;30.76;26.36;99933.69;4351174;33;32659;-96
2022/05/27 10:46:41;;;;;;;3.12;0.88;;;;;;;30.92;25.96;99945.31;4351579;33;33885;-96
2022/05/27 10:49:28;;;;;;;2.55;0.88;;;;;;;31.16;26.11;99924.06;4339709;33;34546;-96
2022/05/27 10:52:33;;;;;;;3.15;1.00;;;;;;;31.25;25.80;99928.50;4339055;33;32817;-95
2022/05/27 10:55:38;;;;;;;3.17;1.05;;;;;;;30.61;26.23;99925.72;4364181;32;35173;-85
2022/05/27 11:02:07;;;;;;;4.97;2.22;;;;;;;30.61;26.47;99919.22;4360054;32;32076;-85
2022/05/27 11:05:14;;;;;;;4.72;1.20;;;;;;;30.82;27.13;99911.66;4347628;33;34472;-85
2022/05/27 11:07:47;;;;;;;2.17;1.00;;;;;;;30.59;26.48;99910.22;4346802;33;34139;-86
2022/05/27 11:10:27;;;;;;;2.35;1.00;;;;;;;30.24;26.52;99901.78;4347622;33;33436;-85
2022/05/27 11:16:39;;;;;;;3.33;1.30;;;;;;;29.94;27.45;99895.09;4348369;33;34576;-85
2022/05/27 11:19:32;;;;;;;3.30;1.60;;;;;;;30.38;26.62;99890.28;4359630;32;34667;-84
2022/05/27 11:22:22;;;;;;;7.22;1.30;;;;;;;30.45;26.87;99882.09;4335876;33;33390;-85
2022/05/27 11:25:06;;;;;;;3.15;1.30;;;;;;;30.38;27.15;99878.94;4335328;33;33264;-84
2022/05/27 11:28:02;;;;;;;3.15;1.10;;;;;;;30.86;26.87;99875.81;4335357;33;34659;-86
2022/05/27 11:30:48;;;;;;;4.30;1.20;;;;;;;31.25;26.47;99868.94;4347572;33;34170;-85
2022/05/27 11:33:22;;;;;;;7.35;1.10;;;;;;;31.20;25.92;99852.12;4336281;33;31751;-86
2022/05/27 11:36:17;;;;;;;2.47;0.90;;;;;;;31.35;26.51;99850.72;4348854;33;33734;-85
2022/05/27 11:38:51;;;;;;;1.98;1.02;;;;;;;30.96;26.48;99851.91;4348875;32;33663;-86
2022/05/27 11:41:25;;;;;;;2.62;0.95;;;;;;;30.71;27.08;99850.84;4347765;33;34839;-84
2022/05/27 11:44:33;;;;;;;5.18;1.23;;;;;;;29.95;27.69;99847.81;4348870;33;34270;-86
2022/05/27 11:47:19;;;;;;;3.72;1.20;;;;;;;30.38;27.48;99831.63;4335474;33;32369;-85
2022/05/27 11:50:03;;;;;;;2.80;1.10;;;;;;;30.58;26.80;99832.91;4347647;33;34315;-85
2022/05/27 11:53:01;;;;;;;2.83;1.20;;;;;;;30.93;27.27;99824.25;4347840;33;34593;-84
2022/05/27 11:55:39;;;;;;;3.72;1.50;;;;;;;31.11;26.67;99821.00;4323452;33;32103;-86
2022/05/27 11:58:33;;;;;;;3.28;1.30;;;;;;;31.01;26.89;99818.53;4347448;33;33228;-86
2022/05/27 12:01:26;;;;;;;4.12;1.20;;;;;;;30.92;27.08;99809.25;4346817;33;32964;-85
2022/05/27 12:04:05;;;;;;;6.03;1.50;;;;;;;30.23;27.97;99806.69;4347637;33;34195;-86
2022/05/27 12:06:43;;;;;;;3.55;1.10;;;;;;;30.84;27.19;99798.78;4335633;33;32700;-85
2022/05/27 12:09:23;;;;;;;6.28;1.20;;;;;;;30.84;26.97;99795.97;4347483;33;34742;-85
2022/05/27 12:12:14;;;;;;;5.57;1.40;;;;;;;30.40;27.39;99797.31;4335380;33;35267;-86
2022/05/27 12:14:47;;;;;;;5.07;1.15;;;;;;;30.79;27.57;99793.31;4335448;33;33824;-86
2022/05/27 12:17:22;;;;;;;3.72;1.20;;;;;;;31.01;26.97;99784.53;4335379;33;33711;-85
2022/05/27 12:19:59;;;;;;;4.05;1.10;;;;;;;29.88;28.01;99783.25;4334853;33;33048;-84
2022/05/27 12:22:33;;;;;;;5.53;2.90;;;;;;;30.38;28.14;99783.47;4335387;33;34248;-86
2022/05/27 12:25:25;;;;;;;4.05;1.92;;;;;;;30.84;27.54;99778.94;4347387;33;33826;-85
2022/05/27 12:27:56;;;;;;;8.57;1.40;;;;;;;30.87;27.28;99774.59;4335276;33;34074;-86
2022/05/27 12:30:34;;;;;;;2.55;1.20;;;;;;;30.76;27.57;99763.66;4335194;33;34668;-86
2022/05/27 12:33:05;;;;;;;3.42;1.02;;;;;;;30.78;27.48;99755.66;4335115;33;32994;-86
2022/05/27 12:35:33;;;;;;;3.00;1.10;;;;;;;30.69;27.60;99768.19;4335098;33;33645;-86